sensor_id;sensor_type;location;lat;lon;timestamp;P1;durP1;ratioP1;P2;durP2;ratioP2
6926;SDS011;3503;50.07605000;8.86719200;2023-03-11T00:13:15;2.33;;;0.90;;
6926;SDS011;3503;50.07605000;8.86719200;2023-03-11T00:28:18;3.00;;;0.40;;
6926;SDS011;3503;50.07605000;8.86719200;2023-03-11T00:43:22;1.10;;;0.53;;
6926;SDS011;3503;50.07605000;8.86719200;2023-03-11T00:58:26;4.63;;;0.70;;
6926;SDS011;3503;50.07605000;8.86719200;2023-03-11T01:13:31;7.23;;;0.87;;
6926;SDS011;3503;50.07605000;8.86719200;2023-03-11T01:28:34;1.63;;;0.40;;
6926;SDS011;3503;50.07605000;8.86719200;2023-03-11T01:43:39;1.97;;;0.63;;
6926;SDS011;3503;50.07605000;8.86719200;2023-03-11T01:58:49;4.27;;;0.97;;
6926;SDS011;3503;50.07605000;8.86719200;2023-03-11T02:13:52;2.70;;;0.60;;
6926;SDS011;3503;50.07605000;8.86719200;2023-03-11T02:28:57;2.60;;;0.53;;
6926;SDS011;3503;50.07605000;8.86719200;2023-03-11T02:44:01;1.40;;;0.40;;
6926;SDS011;3503;50.07605000;8.86719200;2023-03-11T02:59:04;1.37;;;0.87;;
6926;SDS011;3503;50.07605000;8.86719200;2023-03-11T03:14:07;2.30;;;1.30;;
6926;SDS011;3503;50.07605000;8.86719200;2023-03-11T03:29:10;4.47;;;0.67;;
6926;SDS011;3503;50.07605000;8.86719200;2023-03-11T03:44:13;2.13;;;0.57;;
6926;SDS011;3503;50.07605000;8.86719200;2023-03-11T03:59:16;1.43;;;0.40;;
6926;SDS011;3503;50.07605000;8.86719200;2023-03-11T04:14:19;8.50;;;0.90;;
6926;SDS011;3503;50.07605000;8.86719200;2023-03-11T04:29:22;4.40;;;1.00;;
6926;SDS011;3503;50.07605000;8.86719200;2023-03-11T04:44:25;7.90;;;1.17;;
6926;SDS011;3503;50.07605000;8.86719200;2023-03-11T04:59:29;5.60;;;1.17;;
6926;SDS011;3503;50.07605000;8.86719200;2023-03-11T05:14:32;7.53;;;1.43;;
6926;SDS011;3503;50.07605000;8.86719200;2023-03-11T05:29:35;9.37;;;1.20;;
6926;SDS011;3503;50.07605000;8.86719200;2023-03-11T05:44:38;4.47;;;1.48;;
6926;SDS011;3503;50.07605000;8.86719200;2023-03-11T05:59:41;3.90;;;1.50;;
6926;SDS011;3503;50.07605000;8.86719200;2023-03-11T06:14:45;6.83;;;2.07;;
6926;SDS011;3503;50.07605000;8.86719200;2023-03-11T06:29:51;15.37;;;2.33;;
6926;SDS011;3503;50.07605000;8.86719200;2023-03-11T06:44:55;3.70;;;1.50;;
6926;SDS011;3503;50.07605000;8.86719200;2023-03-11T06:59:58;4.03;;;1.83;;
6926;SDS011;3503;50.07605000;8.86719200;2023-03-11T07:15:02;7.87;;;2.37;;
6926;SDS011;3503;50.07605000;8.86719200;2023-03-11T07:30:06;3.70;;;1.03;;
6926;SDS011;3503;50.07605000;8.86719200;2023-03-11T07:45:12;5.27;;;1.70;;
6926;SDS011;3503;50.07605000;8.86719200;2023-03-11T08:00:16;7.07;;;2.20;;
6926;SDS011;3503;50.07605000;8.86719200;2023-03-11T08:15:20;7.88;;;2.00;;
6926;SDS011;3503;50.07605000;8.86719200;2023-03-11T08:30:23;5.63;;;2.03;;
6926;SDS011;3503;50.07605000;8.86719200;2023-03-11T08:45:26;9.83;;;1.57;;
6926;SDS011;3503;50.07605000;8.86719200;2023-03-11T09:00:29;6.33;;;1.57;;
6926;SDS011;3503;50.07605000;8.86719200;2023-03-11T09:15:32;4.70;;;1.77;;
6926;SDS011;3503;50.07605000;8.86719200;2023-03-11T09:30:36;9.70;;;1.80;;
6926;SDS011;3503;50.07605000;8.86719200;2023-03-11T09:45:41;8.00;;;2.40;;
6926;SDS011;3503;50.07605000;8.86719200;2023-03-11T10:00:50;5.30;;;1.67;;
6926;SDS011;3503;50.07605000;8.86719200;2023-03-11T10:15:54;1.17;;;0.47;;
6926;SDS011;3503;50.07605000;8.86719200;2023-03-11T10:31:03;2.60;;;0.80;;
6926;SDS011;3503;50.07605000;8.86719200;2023-03-11T10:46:12;4.00;;;0.73;;
6926;SDS011;3503;50.07605000;8.86719200;2023-03-11T11:01:18;4.73;;;1.03;;
6926;SDS011;3503;50.07605000;8.86719200;2023-03-11T11:16:22;6.83;;;1.00;;
6926;SDS011;3503;50.07605000;8.86719200;2023-03-11T11:31:25;6.33;;;0.73;;
6926;SDS011;3503;50.07605000;8.86719200;2023-03-11T11:46:29;4.03;;;0.77;;
6926;SDS011;3503;50.07605000;8.86719200;2023-03-11T12:01:38;3.60;;;1.10;;
6926;SDS011;3503;50.07605000;8.86719200;2023-03-11T12:16:45;3.70;;;1.47;;
6926;SDS011;3503;50.07605000;8.86719200;2023-03-11T12:31:50;6.53;;;1.70;;
6926;SDS011;3503;50.07605000;8.86719200;2023-03-11T13:02:24;7.23;;;1.50;;
6926;SDS011;3503;50.07605000;8.86719200;2023-03-11T13:17:37;2.77;;;0.93;;
6926;SDS011;3503;50.07605000;8.86719200;2023-03-11T13:32:57;3.07;;;1.23;;
6926;SDS011;3503;50.07605000;8.86719200;2023-03-11T13:48:12;2.50;;;0.60;;
6926;SDS011;3503;50.07605000;8.86719200;2023-03-11T14:03:16;2.03;;;0.90;;
6926;SDS011;3503;50.07605000;8.86719200;2023-03-11T14:18:26;8.10;;;0.90;;
6926;SDS011;3503;50.07605000;8.86719200;2023-03-11T14:33:35;2.73;;;1.30;;
6926;SDS011;3503;50.07605000;8.86719200;2023-03-11T14:48:39;3.43;;;1.30;;
6926;SDS011;3503;50.07605000;8.86719200;2023-03-11T15:03:45;4.93;;;1.10;;
6926;SDS011;3503;50.07605000;8.86719200;2023-03-11T15:18:50;2.73;;;0.70;;
6926;SDS011;3503;50.07605000;8.86719200;2023-03-11T15:33:54;4.17;;;0.67;;
6926;SDS011;3503;50.07605000;8.86719200;2023-03-11T15:48:58;2.00;;;0.90;;
6926;SDS011;3503;50.07605000;8.86719200;2023-03-11T16:04:01;2.57;;;1.03;;
6926;SDS011;3503;50.07605000;8.86719200;2023-03-11T16:19:04;3.67;;;0.87;;
6926;SDS011;3503;50.07605000;8.86719200;2023-03-11T16:34:07;1.80;;;0.60;;
6926;SDS011;3503;50.07605000;8.86719200;2023-03-11T16:49:10;4.60;;;0.93;;
6926;SDS011;3503;50.07605000;8.86719200;2023-03-11T17:04:13;3.17;;;1.47;;
6926;SDS011;3503;50.07605000;8.86719200;2023-03-11T17:19:16;4.43;;;2.00;;
6926;SDS011;3503;50.07605000;8.86719200;2023-03-11T17:34:19;16.30;;;1.33;;
6926;SDS011;3503;50.07605000;8.86719200;2023-03-11T17:49:23;5.10;;;1.47;;
6926;SDS011;3503;50.07605000;8.86719200;2023-03-11T18:04:26;3.10;;;1.40;;
6926;SDS011;3503;50.07605000;8.86719200;2023-03-11T18:19:29;2.87;;;1.23;;
6926;SDS011;3503;50.07605000;8.86719200;2023-03-11T18:34:32;5.50;;;2.20;;
6926;SDS011;3503;50.07605000;8.86719200;2023-03-11T18:49:35;8.07;;;2.20;;
6926;SDS011;3503;50.07605000;8.86719200;2023-03-11T19:04:38;5.07;;;1.13;;
6926;SDS011;3503;50.07605000;8.86719200;2023-03-11T19:19:41;2.63;;;1.23;;
6926;SDS011;3503;50.07605000;8.86719200;2023-03-11T19:34:44;9.37;;;1.47;;
6926;SDS011;3503;50.07605000;8.86719200;2023-03-11T19:49:47;10.23;;;4.67;;
6926;SDS011;3503;50.07605000;8.86719200;2023-03-11T20:04:50;24.03;;;10.13;;
6926;SDS011;3503;50.07605000;8.86719200;2023-03-11T20:19:54;12.00;;;5.20;;
6926;SDS011;3503;50.07605000;8.86719200;2023-03-11T20:34:57;16.83;;;7.20;;
6926;SDS011;3503;50.07605000;8.86719200;2023-03-11T20:50:00;13.10;;;4.33;;
6926;SDS011;3503;50.07605000;8.86719200;2023-03-11T21:05:03;8.70;;;3.57;;
6926;SDS011;3503;50.07605000;8.86719200;2023-03-11T21:20:08;14.37;;;5.43;;
6926;SDS011;3503;50.07605000;8.86719200;2023-03-11T21:35:12;14.43;;;6.50;;
6926;SDS011;3503;50.07605000;8.86719200;2023-03-11T21:50:15;13.47;;;6.37;;
6926;SDS011;3503;50.07605000;8.86719200;2023-03-11T22:05:18;10.47;;;5.40;;
6926;SDS011;3503;50.07605000;8.86719200;2023-03-11T22:20:21;20.20;;;6.93;;
6926;SDS011;3503;50.07605000;8.86719200;2023-03-11T22:35:24;32.03;;;11.67;;
6926;SDS011;3503;50.07605000;8.86719200;2023-03-11T22:50:27;22.47;;;8.33;;
6926;SDS011;3503;50.07605000;8.86719200;2023-03-11T23:05:30;22.40;;;8.63;;
6926;SDS011;3503;50.07605000;8.86719200;2023-03-11T23:20:41;14.93;;;6.60;;
6926;SDS011;3503;50.07605000;8.86719200;2023-03-11T23:35:44;15.10;;;5.07;;
6926;SDS011;3503;50.07605000;8.86719200;2023-03-11T23:50:47;10.60;;;6.07;;
